Time;durP1;ratioP1;P1;durP2;ratioP2;P2;SDS_P1;SDS_P2;PMS_P1;PMS_P2;Temp;Humidity;BMP_temperature;BMP_pressure;BME280_temperature;BME280_humidity;BME280_pressure;Samples;Min_cycle;Max_cycle;Signal;HPM_P1;HPM_P2
2023/03/19 00:00:18;;;;;;;;;4.00;4.00;;;;;14.29;65.31;100753.44;5072143;27;47055;-67
2023/03/19 00:02:48;;;;;;;;;5.00;5.00;;;;;14.19;65.44;100746.53;5079907;27;45511;-67
2023/03/19 00:05:14;;;;;;;;;3.33;2.67;;;;;14.37;65.49;100779.66;5071134;27;45518;-67
2023/03/19 00:07:40;;;;;;;;;6.00;4.00;;;;;14.37;65.92;100787.56;5061637;27;45404;-64
2023/03/19 00:10:09;;;;;;;;;3.00;3.00;;;;;14.37;65.68;100785.81;5089126;27;45371;-67
2023/03/19 00:12:36;;;;;;;;;4.67;3.00;;;;;14.25;66.03;100788.59;5091450;27;45831;-66
2023/03/19 00:15:01;;;;;;;;;3.67;3.00;;;;;14.25;66.39;100793.00;5070321;27;45514;-67
2023/03/19 00:17:27;;;;;;;;;8.67;3.33;;;;;14.07;65.97;100757.19;5075254;27;45370;-65
2023/03/19 00:19:52;;;;;;;;;3.33;2.67;;;;;14.24;65.78;100783.34;5094995;27;46540;-65
2023/03/19 00:22:18;;;;;;;;;6.00;3.00;;;;;14.24;65.99;100786.88;5092262;27;45499;-67
2023/03/19 00:24:43;;;;;;;;;3.00;3.00;;;;;14.30;65.85;100804.34;5092229;27;45471;-66
2023/03/19 00:27:10;;;;;;;;;2.33;2.33;;;;;14.31;65.65;100809.59;5093158;27;45437;-66
2023/03/19 00:29:36;;;;;;;;;4.00;3.33;;;;;14.31;66.01;100809.59;5090391;27;45722;-66
2023/03/19 00:32:02;;;;;;;;;6.00;2.67;;;;;14.15;65.99;100793.09;5095352;27;45496;-66
2023/03/19 00:34:27;;;;;;;;;3.33;2.00;;;;;14.19;66.06;100792.19;5091161;27;45361;-65
2023/03/19 00:36:53;;;;;;;;;2.00;2.00;;;;;14.27;65.40;100812.28;5089396;27;45401;-67
2023/03/19 00:39:20;;;;;;;;;2.67;2.67;;;;;14.20;65.82;100812.34;5095307;27;45871;-64
2023/03/19 00:41:49;;;;;;;;;2.00;2.00;;;;;14.13;65.43;100810.69;5072408;27;45630;-66
2023/03/19 00:44:18;;;;;;;;;1.67;1.67;;;;;14.15;66.11;100810.69;5055010;28;45453;-67
2023/03/19 00:46:44;;;;;;;;;4.00;4.00;;;;;14.14;65.61;100815.09;5086671;27;45424;-67
2023/03/19 00:49:10;;;;;;;;;3.00;3.00;;;;;14.14;65.75;100811.53;5078804;27;45479;-66
2023/03/19 00:51:35;;;;;;;;;4.00;2.67;;;;;14.16;65.91;100813.28;5073619;27;45869;-66
2023/03/19 00:54:01;;;;;;;;;3.00;3.00;;;;;14.22;66.02;100822.88;5076480;27;45990;-66
2023/03/19 00:56:26;;;;;;;;;2.67;1.67;;;;;14.11;65.41;100807.19;5075500;27;45506;-64
2023/03/19 00:58:52;;;;;;;;;1.67;1.33;;;;;14.15;65.47;100811.53;5081212;27;46438;-67
2023/03/19 01:01:18;;;;;;;;;3.00;1.00;;;;;14.13;65.39;100821.22;5093357;27;45338;-66
2023/03/19 01:03:44;;;;;;;;;2.00;2.00;;;;;14.06;65.57;100814.28;5093711;27;45703;-66
2023/03/19 01:06:11;;;;;;;;;4.33;2.33;;;;;14.02;65.42;100811.69;5097202;27;45337;-65
2023/03/19 01:08:36;;;;;;;;;2.00;2.00;;;;;14.11;65.79;100835.28;5092639;27;45770;-65
2023/03/19 01:11:11;;;;;;;;;2.33;2.00;;;;;14.14;65.66;100835.25;5094909;27;45337;-66
2023/03/19 01:13:37;;;;;;;;;2.00;2.00;;;;;14.15;65.94;100829.13;5095402;27;45396;-66
2023/03/19 01:16:03;;;;;;;;;3.33;3.33;;;;;14.07;65.46;100826.56;5092870;27;45949;-66
2023/03/19 01:18:29;;;;;;;;;1.67;1.33;;;;;14.17;65.78;100837.88;5082417;27;45508;-66
2023/03/19 01:20:55;;;;;;;;;1.67;1.67;;;;;14.16;65.83;100846.66;5082310;27;45467;-66
2023/03/19 01:23:21;;;;;;;;;2.00;2.00;;;;;14.14;65.69;100840.53;5090112;27;46185;-66
2023/03/19 01:25:46;;;;;;;;;2.00;2.00;;;;;14.13;65.27;100836.16;5066304;28;45972;-65
2023/03/19 01:28:12;;;;;;;;;3.00;2.00;;;;;14.18;65.30;100835.22;5080338;27;45470;-65
2023/03/19 01:30:39;;;;;;;;;2.00;2.00;;;;;14.05;65.72;100817.81;5069315;27;45439;-66
2023/03/19 01:33:06;;;;;;;;;2.00;2.00;;;;;14.15;65.53;100837.00;5080845;27;45444;-67
2023/03/19 01:35:31;;;;;;;;;3.33;3.00;;;;;14.18;65.38;100840.47;5077955;28;45424;-65
2023/03/19 01:37:57;;;;;;;;;2.00;2.00;;;;;14.15;65.47;100829.97;5079042;27;46837;-66
2023/03/19 01:40:22;;;;;;;;;2.00;2.00;;;;;14.17;65.57;100846.66;5085427;27;45357;-66
2023/03/19 01:43:19;;;;;;;;;3.00;3.00;;;;;14.14;65.40;100846.69;5075903;27;45524;-65
2023/03/19 01:45:46;;;;;;;;;2.00;2.00;;;;;14.13;65.53;100841.44;5076120;27;45704;-65
2023/03/19 01:48:24;;;;;;;;;2.00;2.00;;;;;14.09;65.34;100834.44;5070229;27;45424;-68
2023/03/19 01:50:54;;;;;;;;;2.00;2.00;;;;;14.10;65.19;100839.69;5080481;27;45649;-67
2023/03/19 01:53:24;;;;;;;;;2.00;2.00;;;;;14.01;65.43;100818.72;5080699;27;45662;-67
2023/03/19 01:55:54;;;;;;;;;2.00;2.00;;;;;14.09;65.26;100835.31;5080514;27;45476;-66
2023/03/19 01:58:20;;;;;;;;;3.00;2.67;;;;;14.19;65.50;100836.09;5090667;27;46216;-65
2023/03/19 02:00:46;;;;;;;;;3.33;3.00;;;;;14.13;65.03;100823.00;5072971;27;45420;-66
2023/03/19 02:03:12;;;;;;;;;2.00;2.00;;;;;14.17;65.25;100830.84;5076788;27;45386;-66
2023/03/19 02:05:40;;;;;;;;;2.33;2.33;;;;;14.14;65.01;100828.25;5100451;27;45521;-66
2023/03/19 02:08:10;;;;;;;;;3.00;2.00;;;;;14.11;65.17;100822.13;5099893;27;46135;-68
2023/03/19 02:10:36;;;;;;;;;2.00;2.00;;;;;14.10;65.18;100820.41;5084945;27;45406;-66
2023/03/19 02:13:02;;;;;;;;;3.00;3.00;;;;;14.14;65.30;100833.53;5096112;27;45865;-66
2023/03/19 02:15:28;;;;;;;;;2.00;2.00;;;;;14.16;65.34;100823.81;5096349;27;45865;-65
2023/03/19 02:17:53;;;;;;;;;2.00;2.00;;;;;14.09;65.05;100808.09;5095719;27;46077;-66
2023/03/19 02:20:37;;;;;;;;;3.00;2.00;;;;;14.07;64.89;100815.13;5095963;27;45851;-66
2023/03/19 02:23:37;;;;;;;;;4.00;3.00;;;;;14.00;65.46;100809.97;5086743;27;45534;-66
2023/03/19 02:26:07;;;;;;;;;2.00;2.00;;;;;13.94;65.83;100804.75;5071297;28;45399;-67
2023/03/19 02:28:35;;;;;;;;;2.00;2.00;;;;;13.91;65.66;100809.19;5091237;27;45431;-66
2023/03/19 02:31:01;;;;;;;;;2.00;2.00;;;;;13.95;65.69;100816.16;5099093;27;45591;-66
2023/03/19 02:33:27;;;;;;;;;2.00;2.00;;;;;13.87;65.76;100812.72;5099812;27;45369;-67
2023/03/19 02:35:55;;;;;;;;;3.33;2.00;;;;;13.87;65.62;100807.47;5100480;27;45392;-66
2023/03/19 02:38:23;;;;;;;;;2.00;2.00;;;;;13.93;65.45;100812.69;5081281;27;45596;-66
2023/03/19 02:41:07;;;;;;;;;3.67;2.00;;;;;13.91;65.69;100825.00;5099590;27;45437;-67
2023/03/19 02:43:35;;;;;;;;;2.67;2.33;;;;;13.90;65.17;100832.00;5081540;27;45505;-66
2023/03/19 02:46:04;;;;;;;;;2.00;2.00;;;;;13.92;65.33;100846.03;5094053;27;45565;-66
2023/03/19 02:48:31;;;;;;;;;4.00;4.00;;;;;13.81;65.60;100825.94;5096515;27;45580;-66
2023/03/19 02:50:57;;;;;;;;;4.00;4.00;;;;;13.87;65.69;100839.94;5095497;27;45448;-65
2023/03/19 02:53:22;;;;;;;;;5.00;4.00;;;;;13.89;65.51;100835.53;5095620;27;45895;-66
2023/03/19 02:55:48;;;;;;;;;5.00;3.00;;;;;13.91;65.56;100838.16;5077269;27;45864;-66
2023/03/19 02:58:14;;;;;;;;;3.00;3.00;;;;;13.69;65.48;100819.94;5098325;27;46060;-66
2023/03/19 03:00:40;;;;;;;;;4.00;3.33;;;;;13.71;65.68;100827.81;5085214;27;45777;-66
2023/03/19 03:03:06;;;;;;;;;2.67;2.67;;;;;13.78;65.66;100838.25;5093075;27;45512;-66
2023/03/19 03:05:32;;;;;;;;;3.67;3.67;;;;;13.55;65.04;100800.78;5099946;27;45397;-65
2023/03/19 03:07:58;;;;;;;;;4.00;4.00;;;;;13.78;65.68;100832.13;5077868;27;47203;-65
2023/03/19 03:10:24;;;;;;;;;3.33;3.33;;;;;13.69;65.75;100824.31;5077878;27;45487;-66
2023/03/19 03:12:50;;;;;;;;;3.00;3.00;;;;;13.73;65.52;100836.56;5095267;27;45334;-66
2023/03/19 03:15:16;;;;;;;;;4.00;3.00;;;;;13.71;65.54;100831.28;5099380;27;45536;-66
2023/03/19 03:17:44;;;;;;;;;1.33;1.33;;;;;13.76;65.42;100850.59;5076708;27;46504;-67
2023/03/19 03:20:12;;;;;;;;;4.00;4.00;;;;;13.71;64.85;100848.84;5095275;27;45747;-66
2023/03/19 03:22:38;;;;;;;;;2.33;2.00;;;;;13.70;65.83;100853.25;5079341;27;45381;-66
2023/03/19 03:25:04;;;;;;;;;5.00;3.67;;;;;13.67;65.51;100841.91;5099598;27;45466;-67
2023/03/19 03:27:30;;;;;;;;;4.33;3.33;;;;;13.65;65.45;100841.03;5073778;27;45455;-66
2023/03/19 03:29:55;;;;;;;;;4.00;3.33;;;;;13.57;66.00;100833.19;5088440;27;45686;-67
2023/03/19 03:32:21;;;;;;;;;3.00;3.00;;;;;13.54;66.03;100838.47;5094646;27;45508;-67
2023/03/19 03:34:47;;;;;;;;;4.00;4.00;;;;;13.55;65.51;100841.13;5095150;27;45505;-67
2023/03/19 03:37:13;;;;;;;;;5.33;5.00;;;;;13.56;65.70;100842.84;5078466;27;46661;-66
2023/03/19 03:39:38;;;;;;;;;4.33;4.33;;;;;13.58;65.64;100846.34;5095257;27;45341;-66
2023/03/19 03:42:04;;;;;;;;;5.67;3.00;;;;;13.60;66.26;100856.00;5093881;27;45710;-65
2023/03/19 03:44:30;;;;;;;;;5.00;3.33;;;;;13.46;66.40;100848.22;5095521;27;45372;-65
2023/03/19 03:46:55;;;;;;;;;4.00;3.00;;;;;13.39;66.27;100836.84;5097586;27;45365;-66
2023/03/19 03:49:22;;;;;;;;;3.33;2.33;;;;;13.30;66.82;100836.94;5075772;27;45496;-65
2023/03/19 03:51:47;;;;;;;;;5.33;4.33;;;;;13.37;66.43;100857.03;5094360;27;45461;-66
2023/03/19 03:54:14;;;;;;;;;4.67;4.00;;;;;13.42;66.65;100860.50;5094456;27;45846;-66
2023/03/19 03:56:39;;;;;;;;;6.33;3.67;;;;;13.36;66.38;100856.16;5093782;27;45594;-66
2023/03/19 03:59:06;;;;;;;;;5.67;5.00;;;;;13.42;66.45;100863.13;5095001;27;45464;-66
2023/03/19 04:01:32;;;;;;;;;4.00;4.00;;;;;13.27;66.79;100840.44;5080482;27;45508;-67
2023/03/19 04:03:58;;;;;;;;;4.67;4.67;;;;;13.33;66.50;100852.69;5076297;27;45332;-66
2023/03/19 04:06:25;;;;;;;;;5.00;5.00;;;;;13.40;67.16;100866.66;5073013;27;45509;-68
2023/03/19 04:08:51;;;;;;;;;3.67;3.00;;;;;13.41;66.83;100861.41;5065119;27;45478;-68
2023/03/19 04:11:17;;;;;;;;;4.00;3.00;;;;;13.35;67.22;100848.28;5077187;27;45430;-66
2023/03/19 04:13:42;;;;;;;;;3.00;3.00;;;;;13.45;67.42;100863.09;5077708;27;45443;-66
2023/03/19 04:16:09;;;;;;;;;3.33;3.33;;;;;13.49;67.11;100872.72;5077479;27;45990;-67
2023/03/19 04:18:36;;;;;;;;;4.00;4.00;;;;;13.45;67.00;100862.22;5075458;27;45596;-67
2023/03/19 04:21:04;;;;;;;;;3.67;3.67;;;;;13.52;67.00;100872.69;5073457;27;45307;-67
2023/03/19 04:23:30;;;;;;;;;4.00;4.00;;;;;13.44;67.38;100866.63;5080017;27;45477;-67
2023/03/19 04:26:05;;;;;;;;;0.67;0.67;;;;;13.39;67.04;100852.63;5077771;27;45464;-66
2023/03/19 04:28:31;;;;;;;;;4.00;4.00;;;;;13.42;67.12;100859.63;5064237;27;45594;-67
2023/03/19 04:31:05;;;;;;;;;4.33;3.00;;;;;13.49;67.28;100875.34;5064585;27;45521;-66
2023/03/19 04:33:34;;;;;;;;;5.33;4.00;;;;;13.52;67.32;100867.44;5081005;27;45500;-66
2023/03/19 04:36:00;;;;;;;;;3.67;3.67;;;;;13.49;68.15;100863.97;5077938;27;45505;-66
2023/03/19 04:38:26;;;;;;;;;3.00;3.00;;;;;13.47;67.75;100869.22;5060856;27;45672;-66
2023/03/19 04:40:52;;;;;;;;;3.67;3.00;;;;;13.47;68.02;100869.22;5068724;27;45365;-66
2023/03/19 04:43:18;;;;;;;;;5.33;5.00;;;;;13.46;68.12;100862.22;5066726;27;45625;-67
2023/03/19 04:45:45;;;;;;;;;6.33;4.00;;;;;13.50;67.49;100863.06;5090038;27;45536;-66
2023/03/19 04:48:11;;;;;;;;;5.67;5.67;;;;;13.55;67.72;100874.47;5072771;27;45541;-66
2023/03/19 04:50:37;;;;;;;;;4.33;4.33;;;;;13.53;68.00;100884.13;5073544;27;45781;-66
2023/03/19 04:53:02;;;;;;;;;7.33;5.00;;;;;13.40;67.87;100854.38;5089706;27;45427;-67
2023/03/19 04:55:28;;;;;;;;;5.00;5.00;;;;;13.51;68.32;100873.59;5066265;28;46232;-66
2023/03/19 04:57:54;;;;;;;;;3.67;3.67;;;;;13.45;68.21;100867.50;5058482;27;45397;-66
2023/03/19 05:00:20;;;;;;;;;5.00;5.00;;;;;13.49;68.10;100871.84;5059045;28;45529;-67
2023/03/19 05:02:46;;;;;;;;;10.00;6.67;;;;;13.40;68.36;100864.03;5092660;27;45478;-67
2023/03/19 05:05:12;;;;;;;;;5.67;5.33;;;;;13.44;68.44;100878.91;5096244;27;46008;-65
2023/03/19 05:07:39;;;;;;;;;5.00;5.00;;;;;13.39;68.58;100870.19;5078604;27;45518;-66
2023/03/19 05:10:06;;;;;;;;;4.67;3.67;;;;;13.44;68.62;100885.03;5096770;27;45291;-66
2023/03/19 05:12:32;;;;;;;;;3.00;3.00;;;;;13.33;68.73;100873.72;5097083;27;45440;-66
2023/03/19 05:14:58;;;;;;;;;8.00;6.00;;;;;13.35;68.78;100887.75;5097311;27;46585;-66
2023/03/19 05:17:24;;;;;;;;;7.67;6.00;;;;;13.32;69.07;100893.03;5078327;27;45526;-66
2023/03/19 05:19:52;;;;;;;;;6.00;6.00;;;;;13.25;69.20;100891.28;5097164;27;45494;-66
2023/03/19 05:22:18;;;;;;;;;8.67;6.33;;;;;13.18;69.26;100895.72;5094776;27;45387;-65
2023/03/19 05:24:45;;;;;;;;;6.00;4.00;;;;;13.19;69.00;100894.81;5079602;28;45539;-67
2023/03/19 05:27:11;;;;;;;;;8.00;6.67;;;;;13.24;69.63;100898.31;5097934;27;45847;-66
2023/03/19 05:29:37;;;;;;;;;7.33;5.67;;;;;13.27;69.72;100903.59;5078465;27;45531;-67
2023/03/19 05:32:04;;;;;;;;;7.00;6.33;;;;;13.22;69.52;100900.09;5099363;27;45619;-66
2023/03/19 05:34:30;;;;;;;;;9.33;7.00;;;;;13.20;69.40;100909.72;5101200;27;45961;-68
2023/03/19 05:36:56;;;;;;;;;6.00;5.33;;;;;13.21;69.86;100915.84;5079587;27;45323;-65
2023/03/19 05:39:22;;;;;;;;;4.33;4.33;;;;;13.16;69.98;100900.97;5082535;27;45527;-65
2023/03/19 05:41:47;;;;;;;;;7.33;5.00;;;;;13.20;70.24;100914.13;5099398;27;45453;-66
2023/03/19 05:44:13;;;;;;;;;5.00;5.00;;;;;13.06;70.26;100891.41;5096054;27;46571;-65
2023/03/19 05:46:38;;;;;;;;;6.33;4.67;;;;;13.16;69.77;100913.25;5097322;27;45308;-66
2023/03/19 05:49:04;;;;;;;;;5.67;4.00;;;;;13.21;69.62;100916.72;5096604;27;45604;-66
2023/03/19 05:51:30;;;;;;;;;7.67;6.67;;;;;13.24;70.12;100916.72;5075122;27;45547;-65
2023/03/19 05:53:56;;;;;;;;;8.33;6.67;;;;;13.06;69.48;100888.78;5091894;27;45614;-67
2023/03/19 05:56:21;;;;;;;;;8.67;7.67;;;;;13.22;70.06;100928.16;5098032;27;45421;-66
2023/03/19 05:58:47;;;;;;;;;7.00;4.00;;;;;13.16;69.88;100919.38;5098301;27;45582;-66
2023/03/19 06:01:20;;;;;;;;;6.00;5.67;;;;;13.15;70.28;100917.66;5075897;27;45492;-67
2023/03/19 06:03:46;;;;;;;;;10.33;6.00;;;;;13.16;70.05;100914.13;5074006;28;46724;-65
2023/03/19 06:06:12;;;;;;;;;7.67;7.67;;;;;13.28;69.67;100933.38;5090586;27;45657;-66
2023/03/19 06:08:38;;;;;;;;;10.00;7.00;;;;;13.30;70.01;100929.00;5099126;27;45374;-66
2023/03/19 06:11:03;;;;;;;;;7.67;7.67;;;;;13.21;69.71;100923.75;5096797;27;45886;-66
2023/03/19 06:13:30;;;;;;;;;10.67;7.67;;;;;13.31;69.84;100939.50;5095762;27;45598;-66
2023/03/19 06:15:55;;;;;;;;;8.67;7.33;;;;;13.31;69.41;100941.25;5096910;27;45881;-66
2023/03/19 06:18:21;;;;;;;;;10.00;8.67;;;;;13.30;69.42;100927.22;5099926;27;45453;-67
2023/03/19 06:20:47;;;;;;;;;10.00;9.00;;;;;13.37;69.42;100941.22;5100675;27;45455;-67
2023/03/19 06:23:13;;;;;;;;;11.33;7.67;;;;;13.39;69.80;100954.38;5099650;27;46509;-66
2023/03/19 06:25:39;;;;;;;;;9.33;8.67;;;;;13.43;69.26;100950.81;5100311;27;45333;-66
2023/03/19 06:28:05;;;;;;;;;8.33;7.33;;;;;13.43;69.05;100942.94;5100497;27;45482;-65
2023/03/19 06:30:32;;;;;;;;;9.33;8.00;;;;;13.50;69.32;100956.06;5096649;27;45789;-67
2023/03/19 06:32:58;;;;;;;;;7.33;5.00;;;;;13.52;68.92;100946.38;5077913;27;46466;-67
2023/03/19 06:35:24;;;;;;;;;9.00;9.00;;;;;13.52;68.76;100956.91;5099957;27;45469;-66
2023/03/19 06:37:49;;;;;;;;;10.33;8.67;;;;;13.48;68.90;100951.69;5098809;27;45439;-67
2023/03/19 06:40:15;;;;;;;;;12.33;9.33;;;;;13.56;68.49;100977.06;5074598;27;45420;-66
2023/03/19 06:42:45;;;;;;;;;9.33;9.33;;;;;13.53;68.95;100971.81;5098212;27;46210;-66
2023/03/19 06:45:11;;;;;;;;;8.33;8.00;;;;;13.57;68.57;100978.81;5096801;27;45390;-65
2023/03/19 06:47:40;;;;;;;;;13.67;9.00;;;;;13.51;68.61;100973.59;5095987;27;45705;-66
2023/03/19 06:50:07;;;;;;;;;10.33;9.00;;;;;13.57;68.93;100977.91;5077363;27;45738;-66
2023/03/19 06:52:32;;;;;;;;;15.33;10.00;;;;;13.54;68.83;100975.31;5094873;27;45544;-66
2023/03/19 06:54:58;;;;;;;;;9.33;6.00;;;;;13.57;68.81;100981.44;5093799;27;45499;-65
2023/03/19 06:57:23;;;;;;;;;8.67;8.67;;;;;13.53;68.62;100973.59;5095286;27;45512;-67
2023/03/19 06:59:49;;;;;;;;;12.67;9.00;;;;;13.55;68.87;100977.09;5091859;27;45924;-67
2023/03/19 07:02:15;;;;;;;;;10.00;9.67;;;;;13.60;68.92;100988.44;5087846;27;46339;-66
2023/03/19 07:05:05;;;;;;;;;10.67;7.67;;;;;13.56;68.81;100976.19;5078504;27;45390;-68
2023/03/19 07:07:37;;;;;;;;;7.00;7.00;;;;;13.57;68.39;100994.63;5089336;27;45472;-67
2023/03/19 07:10:04;;;;;;;;;12.67;8.33;;;;;13.51;68.34;100965.69;5076670;27;45468;-66
2023/03/19 07:12:29;;;;;;;;;10.00;8.33;;;;;13.58;69.30;100971.78;5088252;27;46454;-65
2023/03/19 07:15:14;;;;;;;;;9.33;8.00;;;;;13.65;69.12;100988.41;5094662;27;45433;-66
2023/03/19 07:17:40;;;;;;;;;9.33;7.67;;;;;13.57;69.20;100970.94;5095065;27;45602;-65
2023/03/19 07:20:05;;;;;;;;;9.67;9.00;;;;;13.63;69.24;100974.41;5079008;27;45299;-67
2023/03/19 07:22:31;;;;;;;;;10.67;8.00;;;;;13.74;69.23;100996.25;5099382;27;45532;-67
2023/03/19 07:24:57;;;;;;;;;8.33;8.00;;;;;13.54;68.85;100952.50;5094999;27;45519;-67
2023/03/19 07:27:22;;;;;;;;;10.00;8.67;;;;;13.73;68.49;100986.59;5073620;28;45361;-67
2023/03/19 07:29:48;;;;;;;;;10.67;7.33;;;;;13.52;68.34;100949.00;5069516;27;45343;-67
2023/03/19 07:32:14;;;;;;;;;9.33;7.33;;;;;13.87;68.67;100994.41;5098424;27;46474;-65
2023/03/19 07:34:40;;;;;;;;;5.33;5.33;;;;;13.91;67.96;100999.63;5099282;27;45327;-67
2023/03/19 07:37:06;;;;;;;;;8.00;8.00;;;;;13.95;67.52;101006.63;5098907;27;45469;-66
2023/03/19 07:39:32;;;;;;;;;8.00;8.00;;;;;13.95;67.63;100996.09;5076554;27;45517;-67
2023/03/19 07:41:57;;;;;;;;;10.67;7.33;;;;;13.93;68.43;100987.34;5059743;27;46524;-68
2023/03/19 07:44:26;;;;;;;;;8.00;8.00;;;;;13.99;66.81;100989.03;5074149;27;45767;-67
2023/03/19 07:46:51;;;;;;;;;10.33;7.67;;;;;14.04;66.94;100992.50;5056038;28;45798;-67
2023/03/19 07:49:17;;;;;;;;;9.33;7.67;;;;;14.09;66.10;100995.97;5081473;27;45454;-67
2023/03/19 07:51:43;;;;;;;;;4.67;4.67;;;;;14.03;65.98;100979.38;5055026;28;47174;-67
2023/03/19 07:54:09;;;;;;;;;6.00;6.00;;;;;14.14;66.91;100994.19;5055946;27;45389;-65
2023/03/19 07:56:35;;;;;;;;;7.67;7.67;;;;;14.37;65.17;101011.53;5056237;27;45489;-67
2023/03/19 07:59:00;;;;;;;;;11.00;8.67;;;;;14.19;65.05;100957.28;5078281;27;45248;-67
2023/03/19 08:01:26;;;;;;;;;8.33;8.00;;;;;14.61;65.01;100997.28;5080492;27;45425;-67
2023/03/19 08:03:51;;;;;;;;;8.33;5.67;;;;;14.75;64.15;100997.13;5098260;27;45709;-67
2023/03/19 08:06:17;;;;;;;;;5.33;5.33;;;;;14.88;63.67;101004.03;5098761;27;47050;-67
2023/03/19 08:08:42;;;;;;;;;9.00;6.67;;;;;14.95;63.66;100994.25;5118130;27;45544;-67
2023/03/19 08:11:08;;;;;;;;;9.67;8.67;;;;;14.80;63.01;100959.25;5105251;27;45526;-67
2023/03/19 08:13:33;;;;;;;;;8.67;6.33;;;;;15.09;62.42;101005.53;5098135;27;45574;-66
2023/03/19 08:15:59;;;;;;;;;7.33;5.33;;;;;15.01;62.56;100979.22;5080330;27;45678;-66
2023/03/19 08:18:26;;;;;;;;;9.67;9.00;;;;;15.10;62.02;100991.44;5077410;27;45700;-66
2023/03/19 08:20:51;;;;;;;;;5.33;5.33;;;;;15.23;61.92;101008.88;5075464;27;46048;-67
2023/03/19 08:23:17;;;;;;;;;6.00;6.00;;;;;15.37;61.97;101003.41;5078744;27;45295;-67
2023/03/19 08:25:43;;;;;;;;;5.33;5.33;;;;;15.40;61.43;100986.63;5076870;27;46061;-69
2023/03/19 08:28:09;;;;;;;;;5.67;5.67;;;;;15.55;61.46;101009.34;5081172;27;45437;-68
2023/03/19 08:30:38;;;;;;;;;5.33;5.00;;;;;15.45;60.56;100971.63;5076947;27;46405;-66
2023/03/19 08:33:04;;;;;;;;;7.33;5.00;;;;;15.56;60.71;100995.22;5090225;27;45642;-66
2023/03/19 08:35:29;;;;;;;;;6.33;6.33;;;;;15.52;60.40;100998.78;5076641;27;45595;-67
2023/03/19 08:37:55;;;;;;;;;11.67;7.33;;;;;15.65;59.65;101000.38;5055672;28;45567;-67
2023/03/19 08:40:22;;;;;;;;;6.67;5.33;;;;;15.72;59.42;101006.47;5075345;27;45544;-67
2023/03/19 08:42:48;;;;;;;;;4.00;4.00;;;;;15.61;58.93;100994.28;5073644;27;45892;-67
2023/03/19 08:45:14;;;;;;;;;5.67;5.67;;;;;15.65;59.14;101021.50;5066377;27;45917;-65
2023/03/19 08:47:41;;;;;;;;;5.67;3.67;;;;;15.64;58.93;101009.22;5073319;27;45402;-65
2023/03/19 08:50:07;;;;;;;;;6.33;6.00;;;;;15.65;58.20;101018.84;5078310;27;46630;-65
2023/03/19 08:52:33;;;;;;;;;8.33;5.00;;;;;15.39;58.70;101009.53;5072329;27;45559;-67
2023/03/19 08:54:58;;;;;;;;;5.00;4.67;;;;;15.37;59.09;101042.97;5054875;28;45642;-67
2023/03/19 08:57:24;;;;;;;;;7.00;5.00;;;;;15.26;59.53;101053.69;5072759;27;45445;-68
2023/03/19 08:59:51;;;;;;;;;4.67;4.00;;;;;15.13;59.66;101048.56;5073220;27;45823;-68
2023/03/19 09:02:17;;;;;;;;;4.33;3.00;;;;;15.15;59.58;101068.78;5082870;27;45722;-66
2023/03/19 09:04:43;;;;;;;;;5.67;4.00;;;;;15.05;59.53;101068.00;5092898;27;45559;-67
2023/03/19 09:07:14;;;;;;;;;7.00;4.00;;;;;15.12;59.31;101082.00;5092996;27;45789;-67
2023/03/19 09:09:41;;;;;;;;;7.00;4.00;;;;;15.07;59.58;101083.81;5093663;27;46139;-67
2023/03/19 09:12:08;;;;;;;;;4.00;4.00;;;;;15.05;59.74;101080.31;5071340;28;45511;-66
2023/03/19 09:14:34;;;;;;;;;7.67;5.00;;;;;15.10;59.64;101093.47;5085402;27;45846;-67
2023/03/19 09:17:00;;;;;;;;;6.00;6.00;;;;;15.14;59.16;101096.06;5092809;27;45440;-65
2023/03/19 09:19:26;;;;;;;;;5.00;4.67;;;;;15.00;59.35;101096.19;5093203;27;45567;-67
2023/03/19 09:21:52;;;;;;;;;6.00;4.67;;;;;14.97;59.28;101104.16;5074670;27;45402;-67
2023/03/19 09:24:18;;;;;;;;;2.33;2.33;;;;;14.93;59.92;101112.97;5096261;27;45496;-67
2023/03/19 09:26:44;;;;;;;;;4.00;4.00;;;;;14.89;59.69;101103.34;5093958;27;45385;-67
2023/03/19 09:29:09;;;;;;;;;4.00;4.00;;;;;14.84;59.33;101091.97;5079730;27;45535;-66
2023/03/19 09:31:36;;;;;;;;;4.00;3.00;;;;;14.88;59.54;101106.88;5079349;27;45559;-66
2023/03/19 09:34:02;;;;;;;;;3.00;3.00;;;;;14.89;59.04;101105.13;5092493;27;45519;-67
2023/03/19 09:36:27;;;;;;;;;2.00;2.00;;;;;14.86;59.22;101113.06;5085288;27;45658;-68
2023/03/19 09:38:53;;;;;;;;;2.33;1.33;;;;;14.84;59.29;101113.06;5076805;27;47607;-67
2023/03/19 09:41:43;;;;;;;;;2.33;2.00;;;;;14.80;61.12;101106.94;5080524;27;45525;-66
2023/03/19 09:44:18;;;;;;;;;3.33;2.00;;;;;14.92;60.44;101110.34;5078928;28;45814;-68
2023/03/19 09:46:53;;;;;;;;;2.33;2.33;;;;;14.97;58.99;101116.44;5088036;27;45462;-66
2023/03/19 09:49:47;;;;;;;;;4.33;3.00;;;;;14.87;59.08;101105.13;5082076;27;46126;-67
2023/03/19 09:52:42;;;;;;;;;3.00;3.00;;;;;14.92;59.15;101112.97;5094601;27;45496;-67
2023/03/19 09:55:17;;;;;;;;;2.00;2.00;;;;;14.90;58.98;101113.03;5089663;27;45853;-69
2023/03/19 09:57:44;;;;;;;;;4.67;2.33;;;;;14.92;59.43;101126.16;5071659;27;45651;-70
2023/03/19 10:00:16;;;;;;;;;4.33;3.00;;;;;14.94;59.33;101117.34;5071570;28;47010;-67
2023/03/19 10:02:43;;;;;;;;;3.33;2.33;;;;;14.94;58.97;101125.25;5065598;27;45777;-68
2023/03/19 10:05:21;;;;;;;;;2.00;1.33;;;;;14.91;58.85;101125.31;5074539;27;45539;-64
2023/03/19 10:08:09;;;;;;;;;3.33;3.00;;;;;14.83;59.11;101129.78;5084105;27;45868;-67
2023/03/19 10:11:07;;;;;;;;;2.00;2.00;;;;;14.64;59.51;101113.25;5077937;27;47938;-67
2023/03/19 10:14:05;;;;;;;;;2.67;2.33;;;;;14.71;59.82;101125.50;5099968;27;45398;-69
2023/03/19 10:16:31;;;;;;;;;4.00;3.00;;;;;14.69;60.31;101127.28;5088765;27;45427;-68
2023/03/19 10:19:01;;;;;;;;;3.67;2.00;;;;;14.73;60.82;101130.75;5097242;27;45715;-67
2023/03/19 10:21:44;;;;;;;;;4.00;3.00;;;;;14.69;60.98;101119.38;5078179;27;47451;-67
2023/03/19 10:24:21;;;;;;;;;2.67;1.33;;;;;14.80;61.03;101130.66;5100154;27;45354;-65
2023/03/19 10:26:48;;;;;;;;;2.67;1.33;;;;;14.87;61.11;101135.91;5082370;27;45571;-67
2023/03/19 10:29:19;;;;;;;;;3.33;1.00;;;;;14.81;60.70;101145.63;5100149;27;45637;-69
2023/03/19 10:32:03;;;;;;;;;3.00;1.00;;;;;14.74;61.09;101150.97;5077733;27;47573;-67
2023/03/19 10:34:34;;;;;;;;;49.00;39.75;;;;;14.69;67.09;101164.19;5078575;27;45392;-68
2023/03/19 10:42:31;;;;;;;;;9.33;5.33;;;;;15.39;60.84;101157.34;5069816;28;45393;-67
2023/03/19 10:45:30;;;;;;;;;5.67;4.00;;;;;15.31;60.58;101163.59;5051910;27;45346;-65
2023/03/19 10:47:57;;;;;;;;;7.00;5.33;;;;;15.26;61.05;101163.66;5067397;27;45500;-67
2023/03/19 10:50:28;;;;;;;;;6.00;5.00;;;;;15.30;61.01;101172.41;5051696;28;45797;-66
2023/03/19 10:53:28;;;;;;;;;5.00;4.00;;;;;15.26;60.87;101177.72;5065207;28;45493;-67
2023/03/19 10:56:04;;;;;;;;;12.33;11.00;;;;;15.31;63.44;101168.88;5054268;28;45335;-67
2023/03/19 10:58:34;;;;;;;;;6.67;6.67;;;;;15.37;62.29;101169.66;5054377;28;45448;-65
2023/03/19 11:01:06;;;;;;;;;10.33;9.00;;;;;15.39;65.78;101153.81;5041747;28;45501;-64
2023/03/19 11:03:34;;;;;;;;;9.00;6.00;;;;;15.55;65.82;101168.59;5050511;28;45561;-65
2023/03/19 11:06:23;;;;;;;;;8.33;8.33;;;;;15.61;61.64;101160.63;5051342;28;45761;-65
2023/03/19 11:08:59;;;;;;;;;12.33;7.00;;;;;15.58;61.80;101157.13;5052740;28;45448;-67
2023/03/19 11:11:33;;;;;;;;;12.33;9.67;;;;;15.63;61.66;101177.28;5053531;28;45631;-67
2023/03/19 11:14:07;;;;;;;;;12.33;9.00;;;;;15.50;59.41;101188.03;5050449;28;46210;-66
2023/03/19 11:16:50;;;;;;;;;7.67;6.00;;;;;15.23;57.66;101184.78;5054630;27;45545;-66
2023/03/19 11:19:22;;;;;;;;;7.00;4.00;;;;;15.08;58.23;101191.09;5064706;28;45469;-66
2023/03/19 11:22:11;;;;;;;;;3.33;2.67;;;;;14.88;56.43;101190.38;5049668;28;45435;-68
2023/03/19 11:24:41;;;;;;;;;1.00;1.00;;;;;14.75;56.40;101190.47;5053617;28;46232;-67
2023/03/19 11:27:08;;;;;;;;;1.67;1.00;;;;;14.69;57.90;101184.38;5054593;28;45500;-67
2023/03/19 11:29:41;;;;;;;;;3.33;2.00;;;;;14.63;57.50;101190.59;5053156;28;45434;-67
2023/03/19 11:32:16;;;;;;;;;1.33;1.00;;;;;14.62;57.41;101200.25;5049832;28;45387;-65
2023/03/19 11:35:00;;;;;;;;;2.00;2.00;;;;;14.64;57.12;101189.72;5047357;28;46981;-66